Time;durP1;ratioP1;P1;durP2;ratioP2;P2;SDS_P1;SDS_P2;PMS_P1;PMS_P2;Temp;Humidity;BMP_temperature;BMP_pressure;BME280_temperature;BME280_humidity;BME280_pressure;Samples;Min_cycle;Max_cycle;Signal;HPM_P1;HPM_P2
2022/02/03 00:07:13;;;;;;;8.50;6.70;;;;;;;-0.52;83.63;99341.88;446534;1272;142491;-62
2022/02/03 00:27:55;;;;;;;9.00;6.60;;;;;;;-0.55;83.52;99379.59;446589;1271;141702;-62
2022/02/03 00:38:18;;;;;;;10.80;6.90;;;;;;;-0.57;83.70;99392.36;433194;1271;143271;-62
2022/02/03 00:48:32;;;;;;;7.50;5.40;;;;;;;-0.62;83.68;99408.27;444619;1271;141160;-62
2022/02/03 00:58:43;;;;;;;6.70;4.90;;;;;;;-0.66;83.92;99421.95;446505;1271;142094;-63
2022/02/03 01:08:51;;;;;;;8.60;5.70;;;;;;;-0.75;83.75;99438.45;439574;1271;141925;-63
2022/02/03 01:19:17;;;;;;;7.80;5.60;;;;;;;-0.80;83.96;99449.05;446108;1273;141773;-63
2022/02/03 02:00:41;;;;;;;7.30;4.90;;;;;;;-0.82;84.35;99473.65;440486;1272;142664;-62
2022/02/03 02:11:13;;;;;;;6.10;4.50;;;;;;;-0.77;84.33;99486.46;434062;1273;140872;-62
2022/02/03 02:52:39;;;;;;;8.10;5.10;;;;;;;-0.55;84.73;99533.31;446547;1272;143119;-63
2022/02/03 03:03:25;;;;;;;6.90;4.50;;;;;;;-0.52;84.61;99556.65;430859;1273;141530;-61
2022/02/03 03:34:45;;;;;;;5.30;4.50;;;;;;;-0.57;84.72;99606.10;440074;1271;142319;-61
2022/02/03 03:44:55;;;;;;;3.40;3.10;;;;;;;-0.63;84.53;99606.20;446519;1272;142739;-62
2022/02/03 03:55:13;;;;;;;3.70;2.80;;;;;;;-0.67;84.25;99611.08;444454;1271;145566;-62
2022/02/03 05:08:51;;;;;;;3.40;2.60;;;;;;;-1.38;84.16;99642.26;440557;1273;143783;-61
2022/02/03 05:51:26;;;;;;;3.00;1.60;;;;;;;-1.34;82.83;99679.98;437334;1272;144512;-63
2022/02/03 06:12:29;;;;;;;4.40;3.20;;;;;;;-1.37;82.43;99705.62;446683;1271;142222;-62
2022/02/03 14:43:40;;;;;;;20.00;11.10;;;;;;;2.94;77.87;99493.10;425546;1287;954602;-70
2022/02/03 14:58:01;;;;;;;23.70;11.90;;;;;;;3.02;78.05;99490.07;436247;1259;142650;-67
2022/02/03 15:04:52;;;;;;;29.40;13.40;;;;;;;2.99;78.17;99484.64;437157;1258;140916;-56
2022/02/03 15:15:00;;;;;;;22.60;11.90;;;;;;;2.98;78.34;99477.58;436232;1259;140771;-67
2022/02/03 15:25:04;;;;;;;16.10;8.20;;;;;;;2.90;78.15;99474.90;437735;1258;140166;-62
2022/02/03 15:35:15;;;;;;;19.00;8.10;;;;;;;2.71;78.18;99468.44;436976;1258;141217;-58
2022/02/03 15:45:18;;;;;;;24.40;11.50;;;;;;;2.45;78.31;99460.48;435940;1257;141062;-63
2022/02/03 16:57:51;;;;;;;36.80;21.40;;;;;;;1.74;79.32;99418.48;438200;1253;141569;-65
2022/02/03 17:07:54;;;;;;;33.30;20.30;;;;;;;1.69;79.43;99417.77;437688;1253;142077;-62
2022/02/03 17:17:57;;;;;;;38.60;21.20;;;;;;;1.62;79.48;99404.86;438002;1253;142001;-64
2022/02/03 17:28:07;;;;;;;44.00;24.30;;;;;;;1.50;79.57;99397.27;439619;1253;140549;-65
2022/02/03 18:09:24;;;;;;;28.70;17.10;;;;;;;0.99;79.91;99364.58;437502;1255;141330;-64
2022/02/03 18:19:52;;;;;;;31.50;17.70;;;;;;;0.97;79.82;99349.80;439456;1253;141394;-65
2022/02/03 18:50:39;;;;;;;33.80;15.10;;;;;;;1.14;79.09;99321.78;438683;1253;140996;-64
2022/02/03 20:13:20;;;;;;;23.10;12.80;;;;;;;1.24;77.94;99279.21;438378;1253;141333;-62
2022/02/03 20:23:24;;;;;;;21.70;13.30;;;;;;;1.32;77.85;99273.64;439179;1254;140694;-64
2022/02/03 20:33:27;;;;;;;21.30;13.40;;;;;;;1.39;77.61;99266.52;439040;1254;140581;-65
2022/02/03 20:43:30;;;;;;;26.70;12.70;;;;;;;1.34;77.50;99256.67;439984;1253;139965;-68
2022/02/03 20:53:34;;;;;;;29.60;17.60;;;;;;;1.32;77.47;99248.79;439366;1254;141112;-61
2022/02/03 21:03:40;;;;;;;20.30;12.70;;;;;;;1.31;77.64;99249.54;438086;1254;140687;-64
2022/02/03 21:13:43;;;;;;;25.20;12.80;;;;;;;1.27;77.77;99247.39;438096;1255;141364;-61
2022/02/03 21:23:46;;;;;;;19.80;11.50;;;;;;;1.23;77.86;99241.83;439028;1253;151362;-59
2022/02/03 21:33:53;;;;;;;24.10;12.50;;;;;;;1.30;77.86;99236.61;438678;1253;141204;-56
2022/02/03 21:43:56;;;;;;;21.90;12.40;;;;;;;1.38;78.04;99232.89;438706;1254;141268;-61
2022/02/03 21:54:00;;;;;;;22.80;12.40;;;;;;;1.43;78.32;99231.37;438190;1254;142282;-77
2022/02/03 22:04:03;;;;;;;20.60;10.40;;;;;;;1.45;78.31;99231.32;439576;1254;141546;-68
2022/02/03 22:14:06;;;;;;;19.40;12.00;;;;;;;1.43;78.53;99221.55;438730;1254;140784;-66
2022/02/03 22:24:17;;;;;;;21.70;11.50;;;;;;;1.39;78.60;99219.09;440894;1254;145564;-63
2022/02/03 22:44:57;;;;;;;17.90;10.90;;;;;;;1.38;79.16;99192.54;441089;1254;141416;-63
2022/02/03 22:54:59;;;;;;;;;;;;;;;1.38;79.56;99188.41;438404;1254;141027;-60
2022/02/03 23:05:03;;;;;;;19.90;12.10;;;;;;;1.34;80.00;99181.29;438694;1253;130437;-64
2022/02/03 23:15:29;;;;;;;24.90;12.00;;;;;;;1.32;80.48;99177.73;439420;1254;140756;-61
2022/02/03 23:25:32;;;;;;;21.30;13.50;;;;;;;1.32;81.05;99172.40;439402;1254;141604;-61
2022/02/03 23:35:38;;;;;;;20.10;11.70;;;;;;;1.33;81.53;99164.10;438194;1253;140866;-60
2022/02/03 23:46:14;;;;;;;18.40;11.80;;;;;;;1.31;81.90;99157.42;437526;1253;141785;-59
